createdAt,value
2018-02-24T00:00:00.977Z,15.90
2018-02-24T00:01:07.856Z,16.20
2018-02-24T00:02:14.588Z,16.20
2018-02-24T00:03:21.329Z,16.50
2018-02-24T00:04:28.024Z,16.70
2018-02-24T00:05:34.802Z,16.30
2018-02-24T00:06:41.527Z,16.30
2018-02-24T00:07:48.237Z,15.80
2018-02-24T00:08:54.968Z,17.20
2018-02-24T00:10:01.777Z,16.90
2018-02-24T00:11:08.646Z,16.40
2018-02-24T00:12:15.380Z,16.10
2018-02-24T00:13:22.116Z,16.60
2018-02-24T00:14:28.850Z,16.70
2018-02-24T00:15:35.613Z,17.30
2018-02-24T00:16:42.380Z,16.10
2018-02-24T00:17:49.064Z,16.00
2018-02-24T00:18:55.760Z,16.20
2018-02-24T00:20:02.490Z,16.40
2018-02-24T00:21:09.201Z,16.70
2018-02-24T00:22:15.936Z,16.40
2018-02-24T00:23:22.663Z,16.90
2018-02-24T00:24:29.456Z,16.20
2018-02-24T00:25:36.133Z,16.10
2018-02-24T00:26:42.873Z,17.20
2018-02-24T00:27:49.603Z,15.30
2018-02-24T00:28:56.342Z,15.90
2018-02-24T00:30:03.074Z,16.30
2018-02-24T00:31:09.981Z,16.10
2018-02-24T00:32:16.695Z,15.00
2018-02-24T00:33:23.424Z,16.40
2018-02-24T00:34:30.144Z,17.00
2018-02-24T00:35:36.888Z,16.90
2018-02-24T00:36:43.666Z,17.50
2018-02-24T00:37:50.381Z,16.30
2018-02-24T00:38:57.120Z,17.90
2018-02-24T00:40:03.822Z,16.70
2018-02-24T00:41:10.629Z,18.10
2018-02-24T00:42:17.405Z,17.00
2018-02-24T00:43:24.072Z,16.60
2018-02-24T00:44:31.248Z,17.10
2018-02-24T00:45:37.957Z,17.40
2018-02-24T00:46:44.680Z,17.20
2018-02-24T00:47:51.469Z,16.50
2018-02-24T00:48:58.317Z,17.70
2018-02-24T00:50:05.072Z,16.80
2018-02-24T00:51:12.150Z,17.20
2018-02-24T00:52:19.045Z,17.10
2018-02-24T00:53:25.753Z,16.40
2018-02-24T00:54:32.556Z,17.40
2018-02-24T00:55:39.360Z,19.40
2018-02-24T00:56:46.126Z,15.90
2018-02-24T00:57:53.010Z,17.70
2018-02-24T00:58:59.687Z,17.60
2018-02-24T01:00:06.406Z,16.90
2018-02-24T01:01:13.277Z,17.30
2018-02-24T01:02:20.009Z,17.00
2018-02-24T01:03:26.807Z,18.90
2018-02-24T01:04:33.498Z,19.90
2018-02-24T01:05:40.512Z,16.90
2018-02-24T01:06:47.311Z,16.90
2018-02-24T01:07:53.996Z,17.60
2018-02-24T01:09:00.751Z,16.70
2018-02-24T01:10:07.776Z,17.20
2018-02-24T01:11:14.494Z,18.40
2018-02-24T01:12:21.528Z,18.90
2018-02-24T01:13:28.291Z,18.20
2018-02-24T01:14:35.024Z,19.00
2018-02-24T01:15:41.758Z,18.30
2018-02-24T01:16:48.488Z,17.90
2018-02-24T01:17:55.340Z,18.60
2018-02-24T01:19:02.040Z,17.50
2018-02-24T01:20:08.753Z,19.70
2018-02-24T01:21:15.581Z,15.30
2018-02-24T01:22:22.457Z,18.90
2018-02-24T01:23:29.174Z,18.20
2018-02-24T01:24:35.905Z,17.60
2018-02-24T01:25:42.648Z,18.10
2018-02-24T01:26:49.406Z,17.50
2018-02-24T01:27:56.192Z,18.40
2018-02-24T01:29:03.000Z,18.40
2018-02-24T01:30:09.719Z,17.80
2018-02-24T01:31:16.427Z,18.10
2018-02-24T01:32:23.264Z,17.40
2018-02-24T01:33:30.072Z,18.00
2018-02-24T01:34:36.837Z,18.90
2018-02-24T01:35:43.561Z,17.20
2018-02-24T01:36:50.368Z,19.00
2018-02-24T01:37:57.180Z,17.50
2018-02-24T01:39:03.961Z,18.70
2018-02-24T01:40:10.682Z,18.40
2018-02-24T01:41:17.796Z,18.50
2018-02-24T01:42:24.601Z,18.10
2018-02-24T01:43:31.328Z,18.30
2018-02-24T01:44:38.088Z,19.10
2018-02-24T01:45:44.814Z,16.90
2018-02-24T01:46:51.521Z,17.60
2018-02-24T01:47:58.345Z,18.90
2018-02-24T01:49:05.154Z,17.80
2018-02-24T01:50:11.910Z,17.70
2018-02-24T01:51:18.638Z,18.30
2018-02-24T01:52:25.612Z,18.20
2018-02-24T01:53:32.651Z,18.80
2018-02-24T01:54:39.554Z,17.30
2018-02-24T01:55:46.300Z,18.20
2018-02-24T01:56:53.082Z,18.40
2018-02-24T01:57:59.842Z,18.80
2018-02-24T01:59:06.592Z,18.80
2018-02-24T02:00:13.328Z,17.30
2018-02-24T02:01:20.062Z,17.80
2018-02-24T02:02:26.868Z,18.20
2018-02-24T02:03:33.673Z,18.20
2018-02-24T02:04:40.493Z,18.20
2018-02-24T02:05:47.336Z,17.00
2018-02-24T02:06:54.053Z,17.30
2018-02-24T02:08:00.773Z,18.60
2018-02-24T02:09:07.540Z,18.70
2018-02-24T02:10:14.256Z,17.80
2018-02-24T02:11:21.112Z,18.80
2018-02-24T02:12:27.828Z,18.30
2018-02-24T02:13:34.800Z,17.00
2018-02-24T02:14:41.613Z,17.90
2018-02-24T02:15:48.364Z,18.20
2018-02-24T02:16:55.068Z,18.00
2018-02-24T02:18:01.810Z,17.60
2018-02-24T02:19:08.764Z,18.00
2018-02-24T02:20:15.467Z,18.10
2018-02-24T02:21:22.211Z,18.10
2018-02-24T02:22:28.917Z,18.30
2018-02-24T02:23:35.643Z,19.50
2018-02-24T02:24:42.345Z,18.10
2018-02-24T02:25:49.163Z,17.60
2018-02-24T02:26:55.852Z,18.90
2018-02-24T02:28:02.581Z,18.30
2018-02-24T02:29:09.304Z,17.60
2018-02-24T02:30:16.024Z,18.30
2018-02-24T02:31:22.732Z,17.80
2018-02-24T02:32:29.459Z,19.50
2018-02-24T02:33:36.192Z,18.10
2018-02-24T02:34:42.910Z,17.30
2018-02-24T02:35:49.641Z,18.90
2018-02-24T02:36:56.366Z,19.80
2018-02-24T02:38:03.072Z,17.10
2018-02-24T02:39:09.776Z,17.30
2018-02-24T02:40:16.496Z,18.60
2018-02-24T02:41:23.262Z,18.90
2018-02-24T02:42:29.988Z,16.40
2018-02-24T02:43:36.690Z,19.10
2018-02-24T02:44:43.435Z,16.70
2018-02-24T02:45:50.158Z,18.60
2018-02-24T02:46:56.868Z,18.40
2018-02-24T02:48:03.675Z,18.10
2018-02-24T02:49:10.457Z,17.90
2018-02-24T02:50:17.222Z,17.70
2018-02-24T02:51:23.905Z,18.10
2018-02-24T02:52:30.587Z,18.30
2018-02-24T02:53:37.277Z,18.70
2018-02-24T02:54:44.135Z,17.40
2018-02-24T02:55:50.902Z,19.60
2018-02-24T02:56:57.623Z,17.10
2018-02-24T02:58:04.329Z,17.80
2018-02-24T02:59:11.009Z,18.10
2018-02-24T03:00:18.125Z,17.80
2018-02-24T03:01:24.946Z,17.00
2018-02-24T03:02:31.720Z,19.10
2018-02-24T03:03:38.455Z,19.20
2018-02-24T03:04:45.195Z,18.80
2018-02-24T03:05:52.094Z,18.30
2018-02-24T03:06:58.812Z,19.50
2018-02-24T03:08:05.556Z,17.80
2018-02-24T03:09:12.278Z,18.60
2018-02-24T03:10:19.086Z,17.50
2018-02-24T03:11:25.844Z,18.10
2018-02-24T03:12:32.532Z,17.70
2018-02-24T03:13:39.273Z,17.10
2018-02-24T03:14:46.024Z,15.70
2018-02-24T03:15:52.833Z,15.90
2018-02-24T03:16:59.599Z,17.80
2018-02-24T03:18:06.321Z,16.70
2018-02-24T03:19:13.037Z,17.00
2018-02-24T03:20:19.730Z,18.20
2018-02-24T03:21:26.478Z,17.60
2018-02-24T03:22:33.193Z,16.40
2018-02-24T03:23:39.960Z,18.00
2018-02-24T03:24:46.706Z,16.50
2018-02-24T03:25:53.448Z,16.90
2018-02-24T03:27:00.157Z,16.20
2018-02-24T03:28:06.874Z,16.70
2018-02-24T03:29:13.616Z,17.30
2018-02-24T03:30:20.328Z,17.30
2018-02-24T03:31:27.218Z,17.00
2018-02-24T03:32:33.829Z,17.90
2018-02-24T03:33:40.528Z,18.20
2018-02-24T03:34:47.224Z,15.20
2018-02-24T03:35:53.924Z,17.50
2018-02-24T03:37:00.752Z,17.70
2018-02-24T03:38:07.576Z,16.30
2018-02-24T03:39:14.266Z,17.90
2018-02-24T03:40:21.010Z,16.50
2018-02-24T03:41:27.745Z,16.90
2018-02-24T03:42:34.530Z,17.00
2018-02-24T03:43:41.343Z,17.40
2018-02-24T03:44:48.046Z,13.70
2018-02-24T03:45:54.889Z,16.60
2018-02-24T03:47:01.803Z,15.00
2018-02-24T03:48:08.512Z,16.90
2018-02-24T03:49:15.317Z,15.90
2018-02-24T03:50:22.054Z,17.30
2018-02-24T03:51:28.894Z,17.40
2018-02-24T03:52:35.744Z,17.10
2018-02-24T03:53:42.529Z,17.00
2018-02-24T03:54:49.233Z,17.40
2018-02-24T03:55:56.031Z,16.70
2018-02-24T03:57:02.827Z,16.20
2018-02-24T03:58:09.544Z,18.50
2018-02-24T03:59:16.264Z,17.50
2018-02-24T04:00:22.993Z,17.00
2018-02-24T04:01:29.945Z,17.90
2018-02-24T04:02:36.763Z,16.90
2018-02-24T04:03:43.467Z,16.70
2018-02-24T04:04:50.288Z,16.10
2018-02-24T04:05:57.048Z,15.60
2018-02-24T04:07:03.845Z,17.60
2018-02-24T04:08:10.564Z,18.20
2018-02-24T04:09:17.298Z,17.80
2018-02-24T04:10:24.062Z,17.00
2018-02-24T04:11:30.754Z,16.70
2018-02-24T04:12:37.537Z,16.90
2018-02-24T04:13:44.253Z,17.80
2018-02-24T04:14:50.949Z,16.40
2018-02-24T04:15:57.643Z,16.80
2018-02-24T04:17:04.422Z,15.70
2018-02-24T04:18:11.206Z,16.70
2018-02-24T04:19:17.956Z,16.10
2018-02-24T04:20:24.696Z,16.90
2018-02-24T04:21:31.503Z,17.00
2018-02-24T04:22:38.217Z,17.00
2018-02-24T04:23:44.988Z,15.30
2018-02-24T04:24:51.728Z,15.60
2018-02-24T04:25:58.600Z,17.00
2018-02-24T04:27:05.331Z,14.90
2018-02-24T04:28:12.184Z,16.00
2018-02-24T04:29:18.902Z,17.60
2018-02-24T04:30:25.712Z,17.00
2018-02-24T04:31:32.428Z,16.10
2018-02-24T04:32:39.174Z,16.20
2018-02-24T04:33:45.977Z,16.50
2018-02-24T04:34:52.808Z,15.40
2018-02-24T04:35:59.552Z,16.90
2018-02-24T04:37:06.280Z,16.50
2018-02-24T04:38:13.057Z,17.10
2018-02-24T04:39:19.821Z,17.00
2018-02-24T04:40:26.585Z,15.60
2018-02-24T04:41:33.288Z,15.90
2018-02-24T04:42:40.016Z,16.10
2018-02-24T04:43:46.777Z,15.20
2018-02-24T04:44:53.736Z,16.70
2018-02-24T04:46:00.469Z,16.40
2018-02-24T04:47:07.432Z,17.60
2018-02-24T04:48:14.168Z,15.70
2018-02-24T04:49:20.999Z,17.80
2018-02-24T04:50:27.741Z,17.70
2018-02-24T04:51:34.444Z,16.70
2018-02-24T04:52:41.146Z,17.10
2018-02-24T04:53:47.963Z,16.40
2018-02-24T04:54:54.693Z,16.40
2018-02-24T04:56:01.464Z,17.30
2018-02-24T04:57:08.195Z,17.00
2018-02-24T04:58:14.936Z,16.00
2018-02-24T04:59:21.720Z,15.60
2018-02-24T05:00:28.465Z,16.70
2018-02-24T05:01:35.232Z,17.80
2018-02-24T05:02:41.939Z,14.80
2018-02-24T05:03:48.681Z,16.60
2018-02-24T05:04:55.512Z,15.60
2018-02-24T05:06:02.246Z,16.00
2018-02-24T05:07:09.008Z,15.90
2018-02-24T05:08:15.723Z,17.10
2018-02-24T05:09:22.472Z,16.60
2018-02-24T05:10:29.252Z,16.90
2018-02-24T05:11:36.025Z,16.90
2018-02-24T05:12:42.769Z,16.60
2018-02-24T05:13:49.529Z,16.90
2018-02-24T05:14:56.276Z,16.10
2018-02-24T05:16:03.028Z,16.50
2018-02-24T05:17:09.828Z,16.60
2018-02-24T05:18:16.549Z,15.50
2018-02-24T05:19:23.256Z,16.10
2018-02-24T05:20:30.053Z,16.70
2018-02-24T05:21:36.788Z,17.70
2018-02-24T05:22:43.621Z,15.40
2018-02-24T05:23:50.328Z,17.00
2018-02-24T05:24:57.036Z,15.90
2018-02-24T05:26:03.765Z,16.40
2018-02-24T05:27:10.752Z,15.70
2018-02-24T05:28:17.562Z,16.80
2018-02-24T05:29:24.305Z,16.60
2018-02-24T05:30:31.024Z,16.40
2018-02-24T05:31:37.840Z,16.20
2018-02-24T05:32:44.564Z,16.60
2018-02-24T05:33:51.310Z,16.80
2018-02-24T05:34:58.072Z,17.40
2018-02-24T05:36:04.785Z,17.50
2018-02-24T05:37:11.635Z,17.00
2018-02-24T05:38:18.403Z,16.30
2018-02-24T05:39:25.215Z,15.70
2018-02-24T05:40:31.904Z,16.30
2018-02-24T05:41:38.603Z,16.70
2018-02-24T05:42:45.470Z,16.10
2018-02-24T05:43:52.232Z,16.40
2018-02-24T05:44:58.956Z,16.00
2018-02-24T05:46:05.990Z,16.20
2018-02-24T05:47:12.747Z,15.60
2018-02-24T05:48:19.494Z,16.50
2018-02-24T05:49:26.207Z,15.20
2018-02-24T05:50:33.017Z,16.90
2018-02-24T05:51:39.756Z,16.90
2018-02-24T05:52:46.524Z,15.20
2018-02-24T05:53:53.288Z,16.00
2018-02-24T05:54:59.952Z,15.40
2018-02-24T05:56:06.799Z,16.40
2018-02-24T05:57:13.513Z,16.60
2018-02-24T05:58:20.243Z,14.50
2018-02-24T05:59:27.000Z,14.90
2018-02-24T06:00:33.755Z,15.70
2018-02-24T06:01:40.596Z,17.00
2018-02-24T06:02:47.386Z,16.20
2018-02-24T06:03:54.117Z,15.00
2018-02-24T06:05:00.858Z,16.90
2018-02-24T06:06:07.676Z,16.00
2018-02-24T06:07:14.389Z,17.40
2018-02-24T06:08:21.227Z,15.70
2018-02-24T06:09:28.073Z,15.60
2018-02-24T06:10:34.838Z,16.10
2018-02-24T06:11:41.569Z,17.10
2018-02-24T06:12:48.370Z,15.60
2018-02-24T06:13:55.081Z,15.30
2018-02-24T06:15:01.908Z,15.90
2018-02-24T06:16:08.669Z,16.60
2018-02-24T06:17:15.402Z,15.70
2018-02-24T06:18:22.140Z,14.50
2018-02-24T06:19:28.879Z,14.40
2018-02-24T06:20:35.800Z,15.20
2018-02-24T06:21:42.575Z,16.00
2018-02-24T06:22:49.296Z,15.30
2018-02-24T06:23:56.166Z,16.20
2018-02-24T06:25:02.909Z,14.50
2018-02-24T06:26:09.682Z,15.50
2018-02-24T06:27:16.633Z,15.70
2018-02-24T06:28:23.436Z,15.60
2018-02-24T06:29:30.540Z,15.20
2018-02-24T06:30:37.272Z,14.30
2018-02-24T06:31:44.070Z,14.10
2018-02-24T06:32:50.899Z,15.50
2018-02-24T06:33:57.684Z,16.50
2018-02-24T06:35:04.828Z,15.50
2018-02-24T06:36:11.611Z,14.70
2018-02-24T06:37:18.383Z,15.00
2018-02-24T06:38:25.193Z,14.20
2018-02-24T06:39:31.965Z,14.80
2018-02-24T06:40:39.016Z,15.00
2018-02-24T06:41:45.849Z,15.20
2018-02-24T06:42:52.588Z,15.90
2018-02-24T06:43:59.296Z,14.40
2018-02-24T06:45:06.000Z,16.70
2018-02-24T06:46:12.820Z,41.80
2018-02-24T06:47:19.550Z,23.50
2018-02-24T06:48:26.284Z,17.80
2018-02-24T06:49:33.012Z,15.50
2018-02-24T06:50:39.910Z,15.60
2018-02-24T06:51:46.668Z,15.60
2018-02-24T06:52:53.386Z,16.00
2018-02-24T06:54:00.125Z,13.80
2018-02-24T06:55:06.835Z,14.50
2018-02-24T06:56:13.553Z,14.20
2018-02-24T06:57:20.372Z,16.40
2018-02-24T06:58:27.191Z,19.30
2018-02-24T06:59:33.928Z,17.90
2018-02-24T07:00:40.643Z,18.70
2018-02-24T07:01:47.458Z,18.30
2018-02-24T07:02:54.198Z,18.30
2018-02-24T07:04:00.917Z,18.60
2018-02-24T07:05:07.652Z,18.70
2018-02-24T07:06:15.416Z,19.30
2018-02-24T07:07:21.261Z,17.50
2018-02-24T07:08:27.973Z,14.40
2018-02-24T07:09:34.692Z,14.40
2018-02-24T07:10:41.424Z,15.00
2018-02-24T07:11:48.134Z,15.10
2018-02-24T07:12:54.882Z,15.00
2018-02-24T07:14:01.673Z,14.50
2018-02-24T07:15:08.406Z,14.50
2018-02-24T07:16:15.173Z,14.00
2018-02-24T07:17:21.911Z,14.60
2018-02-24T07:18:28.664Z,15.50
2018-02-24T07:19:35.449Z,15.40
2018-02-24T07:20:42.168Z,15.60
2018-02-24T07:21:48.942Z,15.20
2018-02-24T07:22:55.680Z,15.60
2018-02-24T07:24:02.424Z,15.60
2018-02-24T07:25:09.208Z,16.00
2018-02-24T07:26:15.924Z,14.30
2018-02-24T07:27:22.655Z,14.80
2018-02-24T07:28:29.390Z,14.30
2018-02-24T07:29:36.172Z,14.80
2018-02-24T07:30:42.982Z,15.70
2018-02-24T07:31:49.716Z,15.50
2018-02-24T07:32:56.472Z,14.70
2018-02-24T07:34:03.316Z,15.60
2018-02-24T07:35:10.117Z,15.50
2018-02-24T07:36:16.880Z,14.60
2018-02-24T07:37:23.607Z,15.40
2018-02-24T07:38:30.356Z,16.20
2018-02-24T07:39:37.100Z,14.60
2018-02-24T07:40:43.868Z,14.80
2018-02-24T07:41:50.595Z,15.70
2018-02-24T07:42:57.412Z,15.30
2018-02-24T07:44:04.168Z,15.80
2018-02-24T07:45:11.003Z,14.30
2018-02-24T07:46:17.761Z,15.20
2018-02-24T07:47:24.516Z,15.90
2018-02-24T07:48:31.244Z,16.20
2018-02-24T07:49:38.095Z,12.90
2018-02-24T07:50:44.860Z,13.80
2018-02-24T07:51:51.657Z,14.80
2018-02-24T07:52:58.401Z,15.60
2018-02-24T07:54:05.196Z,15.20
2018-02-24T07:55:11.905Z,16.40
2018-02-24T07:56:18.796Z,15.90
2018-02-24T07:57:25.525Z,13.40
2018-02-24T07:58:32.305Z,15.10
2018-02-24T07:59:39.152Z,14.50
2018-02-24T08:00:45.888Z,14.70
2018-02-24T08:01:53.070Z,14.30
2018-02-24T08:02:59.896Z,13.80
2018-02-24T08:04:06.604Z,14.60
2018-02-24T08:05:13.344Z,15.40
2018-02-24T08:06:20.080Z,14.20
2018-02-24T08:07:26.819Z,14.90
2018-02-24T08:08:33.646Z,15.90
2018-02-24T08:09:40.463Z,15.50
2018-02-24T08:10:47.306Z,14.90
2018-02-24T08:11:54.120Z,15.50
2018-02-24T08:13:01.023Z,15.70
2018-02-24T08:14:07.746Z,15.10
2018-02-24T08:15:14.660Z,14.40
2018-02-24T08:16:21.723Z,15.40
2018-02-24T08:17:28.504Z,14.30
2018-02-24T08:18:35.235Z,16.60
2018-02-24T08:19:41.985Z,14.50
2018-02-24T08:20:48.854Z,14.80
2018-02-24T08:21:55.557Z,14.40
2018-02-24T08:23:02.320Z,15.90
2018-02-24T08:24:09.100Z,14.90
2018-02-24T08:25:16.167Z,14.90
2018-02-24T08:26:23.042Z,15.00
2018-02-24T08:27:29.819Z,14.70
2018-02-24T08:28:36.572Z,15.00
2018-02-24T08:29:43.309Z,15.30
2018-02-24T08:30:50.044Z,14.70
2018-02-24T08:31:56.914Z,14.10
2018-02-24T08:33:03.638Z,14.00
2018-02-24T08:34:10.370Z,10.20
2018-02-24T08:35:17.119Z,14.50
2018-02-24T08:36:23.840Z,14.90
2018-02-24T08:37:30.712Z,13.50
2018-02-24T08:38:37.707Z,15.00
2018-02-24T08:39:44.501Z,13.30
2018-02-24T08:40:51.240Z,14.20
2018-02-24T08:41:57.963Z,14.20
2018-02-24T08:43:04.691Z,15.20
2018-02-24T08:44:11.436Z,15.20
2018-02-24T08:45:18.160Z,15.40
2018-02-24T08:46:24.955Z,15.00
2018-02-24T08:47:31.673Z,14.50
2018-02-24T08:48:38.443Z,15.90
2018-02-24T08:49:45.300Z,14.70
2018-02-24T08:50:52.057Z,15.50
2018-02-24T08:51:58.767Z,14.70
2018-02-24T08:53:05.496Z,15.30
2018-02-24T08:54:12.210Z,15.80
2018-02-24T08:55:18.949Z,15.90
2018-02-24T08:56:25.655Z,15.60
2018-02-24T08:57:32.427Z,14.60
2018-02-24T08:58:39.117Z,14.00
2018-02-24T08:59:45.856Z,15.10
2018-02-24T09:00:52.609Z,15.70
2018-02-24T09:01:59.348Z,14.40
2018-02-24T09:03:06.065Z,14.50
2018-02-24T09:04:12.928Z,15.00
2018-02-24T09:05:19.658Z,13.50
2018-02-24T09:06:26.533Z,14.40
2018-02-24T09:07:33.415Z,14.20
2018-02-24T09:08:40.150Z,15.10
2018-02-24T09:09:46.971Z,14.20
2018-02-24T09:10:53.789Z,14.90
2018-02-24T09:12:00.591Z,13.70
2018-02-24T09:13:07.513Z,11.50
2018-02-24T09:14:14.445Z,13.80
2018-02-24T09:15:21.244Z,13.60
2018-02-24T09:16:28.051Z,14.30
2018-02-24T09:17:34.856Z,12.60
2018-02-24T09:18:41.649Z,17.40
2018-02-24T09:19:48.427Z,15.10
2018-02-24T09:20:55.418Z,14.60
2018-02-24T09:22:02.221Z,14.60
2018-02-24T09:23:08.960Z,12.50
2018-02-24T09:24:16.276Z,13.90
2018-02-24T09:25:22.888Z,14.20
2018-02-24T09:26:30.211Z,14.90
2018-02-24T09:27:37.391Z,13.00
2018-02-24T09:28:44.256Z,13.80
2018-02-24T09:29:50.597Z,14.10
2018-02-24T09:30:57.319Z,13.60
2018-02-24T09:32:04.056Z,11.40
2018-02-24T09:33:10.772Z,14.10
2018-02-24T09:34:17.493Z,13.60
2018-02-24T09:35:24.223Z,12.60
2018-02-24T09:36:31.052Z,13.70
2018-02-24T09:37:37.773Z,12.90
2018-02-24T09:38:44.528Z,13.70
2018-02-24T09:39:51.247Z,13.90
2018-02-24T09:40:57.944Z,11.70
2018-02-24T09:42:04.673Z,12.20
2018-02-24T09:43:11.489Z,11.50
2018-02-24T09:44:18.224Z,12.50
2018-02-24T09:45:24.958Z,11.80
2018-02-24T09:46:31.631Z,13.20
2018-02-24T09:47:38.349Z,13.20
2018-02-24T09:48:45.131Z,12.40
2018-02-24T09:49:51.915Z,12.60
2018-02-24T09:50:58.688Z,11.50
2018-02-24T09:52:05.376Z,13.00
2018-02-24T09:53:12.323Z,13.20
2018-02-24T09:54:19.120Z,12.40
2018-02-24T09:55:25.808Z,12.50
2018-02-24T09:56:32.520Z,12.90
2018-02-24T09:57:39.221Z,12.20
2018-02-24T09:58:45.965Z,11.80
2018-02-24T09:59:52.693Z,11.90
2018-02-24T10:00:59.461Z,11.50
2018-02-24T10:02:06.164Z,11.70
2018-02-24T10:03:12.859Z,12.50
2018-02-24T10:04:19.584Z,11.90
2018-02-24T10:05:26.294Z,11.70
2018-02-24T10:06:33.024Z,12.30
2018-02-24T10:07:39.738Z,12.20
2018-02-24T10:08:46.557Z,12.40
2018-02-24T10:09:53.250Z,12.70
2018-02-24T10:10:59.972Z,12.60
2018-02-24T10:12:06.685Z,12.20
2018-02-24T10:13:13.371Z,11.20
2018-02-24T10:14:20.093Z,10.90
2018-02-24T10:15:26.816Z,11.60
2018-02-24T10:16:33.585Z,10.80
2018-02-24T10:17:40.292Z,12.70
2018-02-24T10:18:47.062Z,12.50
2018-02-24T10:19:53.805Z,12.00
2018-02-24T10:21:00.529Z,11.30
2018-02-24T10:22:07.365Z,11.70
2018-02-24T10:23:14.465Z,9.90
2018-02-24T10:24:21.228Z,11.00
2018-02-24T10:25:28.166Z,9.00
2018-02-24T10:26:35.083Z,11.80
2018-02-24T10:27:41.883Z,11.20
2018-02-24T10:28:48.623Z,11.60
2018-02-24T10:29:55.516Z,9.20
2018-02-24T10:31:02.579Z,11.40
2018-02-24T10:32:09.384Z,11.60
2018-02-24T10:33:16.163Z,11.80
2018-02-24T10:34:23.009Z,11.00
2018-02-24T10:35:29.809Z,11.50
2018-02-24T10:36:36.656Z,11.60
2018-02-24T10:37:43.505Z,10.90
2018-02-24T10:38:50.385Z,10.90
2018-02-24T10:39:57.104Z,10.80
2018-02-24T10:41:03.977Z,10.90
2018-02-24T10:42:10.759Z,9.90
2018-02-24T10:43:17.558Z,10.80
2018-02-24T10:44:24.460Z,9.80
2018-02-24T10:45:31.268Z,10.80
2018-02-24T10:46:38.183Z,10.00
2018-02-24T10:47:44.981Z,11.40
2018-02-24T10:48:51.998Z,10.00
2018-02-24T10:49:58.924Z,9.50
2018-02-24T10:51:05.926Z,10.80
2018-02-24T10:52:12.960Z,10.40
2018-02-24T10:53:20.739Z,10.30
2018-02-24T10:54:26.649Z,10.60
2018-02-24T10:55:33.433Z,9.80
2018-02-24T10:56:40.240Z,10.70
2018-02-24T10:57:47.373Z,10.50
2018-02-24T10:58:54.041Z,10.60
2018-02-24T11:00:00.779Z,10.40
2018-02-24T11:01:07.456Z,11.20
2018-02-24T11:02:14.320Z,10.50
2018-02-24T11:03:21.070Z,10.20
2018-02-24T11:04:27.838Z,9.80
2018-02-24T11:05:34.569Z,9.40
2018-02-24T11:06:41.372Z,10.30
2018-02-24T11:07:48.148Z,9.80
2018-02-24T11:08:54.941Z,9.90
2018-02-24T11:10:01.841Z,8.70
2018-02-24T11:11:08.754Z,10.50
2018-02-24T11:12:15.611Z,8.90
2018-02-24T11:13:22.346Z,10.00
2018-02-24T11:14:29.080Z,11.20
2018-02-24T11:15:35.799Z,13.50
2018-02-24T11:16:42.519Z,14.30
2018-02-24T11:17:49.286Z,13.90
2018-02-24T11:18:56.071Z,15.20
2018-02-24T11:20:02.852Z,16.40
2018-02-24T11:21:09.549Z,14.20
2018-02-24T11:22:16.264Z,15.60
2018-02-24T11:23:23.107Z,9.90
2018-02-24T11:24:29.789Z,9.60
2018-02-24T11:25:36.483Z,7.90
2018-02-24T11:26:43.218Z,9.80
2018-02-24T11:27:49.956Z,9.60
2018-02-24T11:28:56.668Z,9.10
2018-02-24T11:30:03.518Z,9.80
2018-02-24T11:31:10.419Z,9.10
2018-02-24T11:32:17.385Z,10.60
2018-02-24T11:33:24.088Z,9.90
2018-02-24T11:34:30.868Z,9.30
2018-02-24T11:35:37.568Z,9.90
2018-02-24T11:36:44.633Z,9.50
2018-02-24T11:37:51.308Z,9.50
2018-02-24T11:38:58.033Z,10.20
2018-02-24T11:40:04.908Z,9.50
2018-02-24T11:41:11.643Z,8.70
2018-02-24T11:42:18.348Z,10.20
2018-02-24T11:43:25.108Z,10.20
2018-02-24T11:44:31.971Z,9.70
2018-02-24T11:45:38.665Z,9.80
2018-02-24T11:46:45.388Z,10.80
2018-02-24T11:47:52.081Z,10.10
2018-02-24T11:48:58.822Z,9.70
2018-02-24T11:50:05.536Z,9.60
2018-02-24T11:51:12.352Z,9.70
2018-02-24T11:52:19.048Z,10.80
2018-02-24T11:53:25.768Z,9.50
2018-02-24T11:54:32.532Z,9.50
2018-02-24T11:55:39.278Z,9.50
2018-02-24T11:56:45.976Z,10.30
2018-02-24T11:57:52.817Z,10.00
2018-02-24T11:58:59.837Z,9.40
2018-02-24T12:00:06.573Z,11.00
2018-02-24T12:01:13.297Z,10.20
2018-02-24T12:02:20.057Z,9.50
2018-02-24T12:03:26.817Z,10.60
2018-02-24T12:04:33.496Z,10.70
2018-02-24T12:05:40.297Z,12.70
2018-02-24T12:06:46.973Z,10.80
2018-02-24T12:07:53.694Z,10.50
2018-02-24T12:09:00.422Z,9.90
2018-02-24T12:10:07.387Z,9.80
2018-02-24T12:11:14.225Z,9.60
2018-02-24T12:12:20.953Z,9.20
2018-02-24T12:13:27.774Z,9.90
2018-02-24T12:14:34.483Z,9.80
2018-02-24T12:15:41.228Z,9.70
2018-02-24T12:16:48.004Z,10.60
2018-02-24T12:17:54.841Z,10.30
2018-02-24T12:19:02.836Z,9.00
2018-02-24T12:20:08.624Z,9.50
2018-02-24T12:21:15.340Z,10.00
2018-02-24T12:22:22.097Z,10.30
2018-02-24T12:23:28.828Z,9.70
2018-02-24T12:24:35.563Z,10.30
2018-02-24T12:25:42.336Z,13.60
2018-02-24T12:26:49.043Z,18.20
2018-02-24T12:27:55.800Z,15.90
2018-02-24T12:29:02.565Z,13.70
2018-02-24T12:30:09.285Z,9.90
2018-02-24T12:31:16.063Z,8.90
2018-02-24T12:32:22.828Z,11.90
2018-02-24T12:33:29.580Z,9.20
2018-02-24T12:34:36.287Z,9.30
2018-02-24T12:35:43.127Z,9.40
2018-02-24T12:36:49.840Z,8.70
2018-02-24T12:37:56.568Z,9.30
2018-02-24T12:39:03.343Z,9.30
2018-02-24T12:40:10.192Z,10.50
2018-02-24T12:41:16.908Z,9.40
2018-02-24T12:42:23.677Z,9.20
2018-02-24T12:43:30.433Z,9.70
2018-02-24T12:44:37.240Z,10.40
2018-02-24T12:45:44.012Z,10.20
2018-02-24T12:46:50.748Z,10.60
2018-02-24T12:47:57.556Z,9.40
2018-02-24T12:49:04.333Z,10.20
2018-02-24T12:50:11.083Z,10.20
2018-02-24T12:51:17.909Z,9.90
2018-02-24T12:52:24.641Z,9.50
2018-02-24T12:53:31.435Z,10.10
2018-02-24T12:54:38.313Z,9.30
2018-02-24T12:55:45.096Z,9.20
2018-02-24T12:56:51.871Z,9.30
2018-02-24T12:57:58.693Z,8.30
2018-02-24T12:59:05.509Z,9.80
2018-02-24T13:00:12.637Z,9.40
2018-02-24T13:01:19.460Z,10.30
2018-02-24T13:02:26.172Z,9.40
2018-02-24T13:03:32.951Z,9.30
2018-02-24T13:04:39.705Z,9.50
2018-02-24T13:05:46.413Z,8.70
2018-02-24T13:06:53.185Z,9.40
2018-02-24T13:07:59.952Z,9.00
2018-02-24T13:09:06.713Z,8.60
2018-02-24T13:10:13.469Z,10.10
2018-02-24T13:11:20.522Z,9.30
2018-02-24T13:12:27.364Z,10.10
2018-02-24T13:13:34.123Z,9.70
2018-02-24T13:14:41.333Z,9.40
2018-02-24T13:15:48.087Z,9.00
2018-02-24T13:16:54.891Z,8.70
2018-02-24T13:18:01.624Z,8.30
2018-02-24T13:19:08.357Z,8.50
2018-02-24T13:20:15.082Z,9.40
2018-02-24T13:21:21.796Z,10.10
2018-02-24T13:22:28.556Z,11.30
2018-02-24T13:23:35.253Z,11.30
2018-02-24T13:24:42.049Z,10.10
2018-02-24T13:25:48.777Z,10.30
2018-02-24T13:26:55.513Z,9.70
2018-02-24T13:28:02.370Z,10.80
2018-02-24T13:29:09.074Z,10.80
2018-02-24T13:30:15.796Z,11.90
2018-02-24T13:31:22.716Z,9.50
2018-02-24T13:32:29.473Z,8.80
2018-02-24T13:33:36.258Z,8.70
2018-02-24T13:34:43.101Z,9.00
2018-02-24T13:35:49.824Z,8.60
2018-02-24T13:36:56.604Z,10.50
2018-02-24T13:38:03.363Z,9.20
2018-02-24T13:39:10.158Z,8.70
2018-02-24T13:40:16.893Z,8.90
2018-02-24T13:41:23.654Z,8.30
2018-02-24T13:42:30.480Z,8.90
2018-02-24T13:43:37.216Z,9.30
2018-02-24T13:44:44.039Z,9.00
2018-02-24T13:45:50.823Z,10.20
2018-02-24T13:46:57.647Z,10.00
2018-02-24T13:48:04.412Z,9.60
2018-02-24T13:49:11.203Z,9.50
2018-02-24T13:50:17.893Z,10.50
2018-02-24T13:51:24.725Z,8.80
2018-02-24T13:52:31.576Z,8.80
2018-02-24T13:53:38.313Z,9.00
2018-02-24T13:54:45.026Z,9.00
2018-02-24T13:55:51.845Z,8.10
2018-02-24T13:56:58.529Z,9.40
2018-02-24T13:58:07.235Z,8.30
2018-02-24T13:59:11.920Z,8.40
2018-02-24T14:00:18.646Z,8.70
2018-02-24T14:01:25.511Z,9.10
2018-02-24T14:02:32.216Z,8.50
2018-02-24T14:03:38.955Z,10.10
2018-02-24T14:04:45.676Z,17.00
2018-02-24T14:05:52.400Z,14.00
2018-02-24T14:06:59.220Z,16.40
2018-02-24T14:08:05.939Z,15.70
2018-02-24T14:09:13.157Z,13.50
2018-02-24T14:10:19.761Z,16.60
2018-02-24T14:11:26.468Z,17.10
2018-02-24T14:12:33.426Z,15.00
2018-02-24T14:13:41.367Z,12.20
2018-02-24T14:14:47.225Z,9.30
2018-02-24T14:15:53.992Z,8.30
2018-02-24T14:17:00.777Z,8.10
2018-02-24T14:18:07.632Z,9.10
2018-02-24T14:19:14.336Z,8.00
2018-02-24T14:20:21.074Z,7.80
2018-02-24T14:21:27.809Z,8.60
2018-02-24T14:22:34.516Z,7.90
2018-02-24T14:23:41.290Z,8.30